createdAt,value
2018-11-01T00:00:11.330Z,928.51
2018-11-01T00:00:24.370Z,928.5
2018-11-01T00:00:35.966Z,928.51
2018-11-01T00:00:48.404Z,928.52
2018-11-01T00:01:00.947Z,928.5
2018-11-01T00:01:13.517Z,928.5
2018-11-01T00:01:26.524Z,928.5
2018-11-01T00:01:39.513Z,928.49
2018-11-01T00:01:51.989Z,928.48
2018-11-01T00:02:05.012Z,928.46
2018-11-01T00:02:17.531Z,928.47
2018-11-01T00:02:29.558Z,928.49
2018-11-01T00:02:42.146Z,928.49
2018-11-01T00:02:55.166Z,928.48
2018-11-01T00:03:07.727Z,928.48
2018-11-01T00:03:20.703Z,928.49
2018-11-01T00:03:33.733Z,928.48
2018-11-01T00:03:46.851Z,928.47
2018-11-01T00:03:59.821Z,928.48
2018-11-01T00:04:12.332Z,928.46
2018-11-01T00:04:25.317Z,928.48
2018-11-01T00:04:38.288Z,928.5
2018-11-01T00:04:51.322Z,928.51
2018-11-01T00:05:04.344Z,928.52
2018-11-01T00:05:17.394Z,928.54
2018-11-01T00:05:29.003Z,928.53
2018-11-01T00:05:42.005Z,928.53
2018-11-01T00:05:54.990Z,928.54
2018-11-01T00:06:07.019Z,928.53
2018-11-01T00:06:19.948Z,928.53
2018-11-01T00:06:32.007Z,928.55
2018-11-01T00:06:44.998Z,928.54
2018-11-01T00:06:57.534Z,928.55
2018-11-01T00:07:10.017Z,928.53
2018-11-01T00:07:22.557Z,928.54
2018-11-01T00:07:35.553Z,928.52
2018-11-01T00:07:48.058Z,928.51
2018-11-01T00:08:01.040Z,928.56
2018-11-01T00:08:13.571Z,928.53
2018-11-01T00:08:26.091Z,928.55
2018-11-01T00:08:38.178Z,928.53
2018-11-01T00:08:51.330Z,928.54
2018-11-01T00:09:03.858Z,928.58
2018-11-01T00:09:16.800Z,928.64
2018-11-01T00:09:29.333Z,928.62
2018-11-01T00:09:42.236Z,928.6
2018-11-01T00:09:55.176Z,928.61
2018-11-01T00:10:06.791Z,928.62
2018-11-01T00:10:19.293Z,928.62
2018-11-01T00:10:31.865Z,928.66
2018-11-01T00:10:44.870Z,928.62
2018-11-01T00:10:57.395Z,928.63
2018-11-01T00:11:09.454Z,928.64
2018-11-01T00:11:22.465Z,928.65
2018-11-01T00:11:34.986Z,928.62
2018-11-01T00:11:47.506Z,928.65
2018-11-01T00:11:59.566Z,928.64
2018-11-01T00:12:12.090Z,928.63
2018-11-01T00:12:25.149Z,928.63
2018-11-01T00:12:38.164Z,928.62
2018-11-01T00:12:51.196Z,928.64
2018-11-01T00:13:04.190Z,928.6
2018-11-01T00:13:16.762Z,928.65
2018-11-01T00:13:29.785Z,928.62
2018-11-01T00:13:41.834Z,928.63
2018-11-01T00:13:55.554Z,928.63
2018-11-01T00:14:08.578Z,928.64
2018-11-01T00:14:21.066Z,928.61
2018-11-01T00:14:34.040Z,928.65
2018-11-01T00:14:46.974Z,928.63
2018-11-01T00:14:59.471Z,928.65
2018-11-01T00:15:12.031Z,928.64
2018-11-01T00:15:25.072Z,928.62
2018-11-01T00:15:37.101Z,928.64
2018-11-01T00:15:49.632Z,928.63
2018-11-01T00:16:02.190Z,928.62
2018-11-01T00:16:15.164Z,928.64
2018-11-01T00:16:28.067Z,928.61
2018-11-01T00:16:40.139Z,928.61
2018-11-01T00:16:52.689Z,928.63
2018-11-01T00:17:05.661Z,928.61
2018-11-01T00:17:18.245Z,928.65
2018-11-01T00:17:30.773Z,928.6
2018-11-01T00:17:42.754Z,928.62
2018-11-01T00:17:55.256Z,928.59
2018-11-01T00:18:08.250Z,928.6
2018-11-01T00:18:20.772Z,928.62
2018-11-01T00:18:33.304Z,928.6
2018-11-01T00:18:45.350Z,928.58
2018-11-01T00:18:58.332Z,928.57
2018-11-01T00:19:10.832Z,928.57
2018-11-01T00:19:23.330Z,928.57
2018-11-01T00:19:36.270Z,928.56
2018-11-01T00:19:48.784Z,928.57
2018-11-01T00:20:01.313Z,928.56
2018-11-01T00:20:13.794Z,928.56
2018-11-01T00:20:26.353Z,928.55
2018-11-01T00:20:38.879Z,928.54
2018-11-01T00:20:51.859Z,928.51
2018-11-01T00:21:04.488Z,928.52
2018-11-01T00:21:17.543Z,928.51
2018-11-01T00:21:30.051Z,928.53
2018-11-01T00:21:43.050Z,928.48
2018-11-01T00:21:55.077Z,928.48
2018-11-01T00:22:08.120Z,928.48
2018-11-01T00:22:19.697Z,928.47
2018-11-01T00:22:32.298Z,928.46
2018-11-01T00:22:45.285Z,928.48
2018-11-01T00:22:57.802Z,928.49
2018-11-01T00:23:09.851Z,928.45
2018-11-01T00:23:22.410Z,928.43
2018-11-01T00:23:35.363Z,928.43
2018-11-01T00:23:47.862Z,928.43
2018-11-01T00:24:00.837Z,928.4
2018-11-01T00:24:13.361Z,928.45
2018-11-01T00:24:25.886Z,928.45
2018-11-01T00:24:38.964Z,928.43
2018-11-01T00:24:51.040Z,928.43
2018-11-01T00:25:04.001Z,928.44
2018-11-01T00:25:16.577Z,928.47
2018-11-01T00:25:29.520Z,928.44
2018-11-01T00:25:42.577Z,928.45
2018-11-01T00:25:55.076Z,928.47
2018-11-01T00:26:08.073Z,928.47
2018-11-01T00:26:20.614Z,928.48
2018-11-01T00:26:33.598Z,928.5
2018-11-01T00:26:46.589Z,928.5
2018-11-01T00:26:59.184Z,928.49
2018-11-01T00:27:12.163Z,928.51
2018-11-01T00:27:24.189Z,928.51
2018-11-01T00:27:36.754Z,928.51
2018-11-01T00:27:49.241Z,928.5
2018-11-01T00:28:01.228Z,928.53
2018-11-01T00:28:13.780Z,928.55
2018-11-01T00:28:26.284Z,928.54
2018-11-01T00:28:39.284Z,928.56
2018-11-01T00:28:52.438Z,928.57
2018-11-01T00:29:04.447Z,928.55
2018-11-01T00:29:16.521Z,928.56
2018-11-01T00:29:29.551Z,928.59
2018-11-01T00:29:42.550Z,928.55
2018-11-01T00:29:55.068Z,928.54
2018-11-01T00:30:08.049Z,928.54
2018-11-01T00:30:20.546Z,928.6
2018-11-01T00:30:33.571Z,928.57
2018-11-01T00:30:46.555Z,928.6
2018-11-01T00:30:59.023Z,928.57
2018-11-01T00:31:11.464Z,928.58
2018-11-01T00:31:24.488Z,928.61
2018-11-01T00:31:37.509Z,928.64
2018-11-01T00:31:50.053Z,928.63
2018-11-01T00:32:02.119Z,928.61
2018-11-01T00:32:14.613Z,928.61
2018-11-01T00:32:27.110Z,928.61
2018-11-01T00:32:40.070Z,928.62
2018-11-01T00:32:53.086Z,928.66
2018-11-01T00:33:05.613Z,928.66
2018-11-01T00:33:18.140Z,928.64
2018-11-01T00:33:31.113Z,928.64
2018-11-01T00:33:43.647Z,928.64
2018-11-01T00:33:56.618Z,928.65
2018-11-01T00:34:09.551Z,928.64
2018-11-01T00:34:22.492Z,928.63
2018-11-01T00:34:35.451Z,928.66
2018-11-01T00:34:48.462Z,928.65
2018-11-01T00:35:00.571Z,928.61
2018-11-01T00:35:13.102Z,928.68
2018-11-01T00:35:25.637Z,928.67
2018-11-01T00:35:38.588Z,928.69
2018-11-01T00:35:51.563Z,928.68
2018-11-01T00:36:04.075Z,928.68
2018-11-01T00:36:17.039Z,928.66
2018-11-01T00:36:29.505Z,928.69
2018-11-01T00:36:42.080Z,928.7
2018-11-01T00:36:54.574Z,928.7
2018-11-01T00:37:07.542Z,928.71
2018-11-01T00:37:19.583Z,928.71
2018-11-01T00:37:32.559Z,928.72
2018-11-01T00:37:45.524Z,928.71
2018-11-01T00:37:57.618Z,928.71
2018-11-01T00:38:09.656Z,928.69
2018-11-01T00:38:22.702Z,928.69
2018-11-01T00:38:35.217Z,928.68
2018-11-01T00:38:48.092Z,928.72
2018-11-01T00:39:00.215Z,928.68
2018-11-01T00:39:12.742Z,928.68
2018-11-01T00:39:25.686Z,928.71
2018-11-01T00:39:36.766Z,928.69
2018-11-01T00:39:49.732Z,928.7
2018-11-01T00:40:01.807Z,928.68
2018-11-01T00:40:14.790Z,928.67
2018-11-01T00:40:27.300Z,928.66
2018-11-01T00:40:39.745Z,928.66
2018-11-01T00:40:52.779Z,928.64
2018-11-01T00:41:04.774Z,928.67
2018-11-01T00:41:17.786Z,928.65
2018-11-01T00:41:30.362Z,928.65
2018-11-01T00:41:43.378Z,928.66
2018-11-01T00:41:55.871Z,928.64
2018-11-01T00:42:08.378Z,928.64
2018-11-01T00:42:20.933Z,928.65
2018-11-01T00:42:32.601Z,928.64
2018-11-01T00:42:45.518Z,928.67
2018-11-01T00:42:57.587Z,928.67
2018-11-01T00:43:10.559Z,928.67
2018-11-01T00:43:23.137Z,928.67
2018-11-01T00:43:36.139Z,928.64
2018-11-01T00:43:48.240Z,928.65
2018-11-01T00:44:01.709Z,928.63
2018-11-01T00:44:14.212Z,928.63
2018-11-01T00:44:26.280Z,928.63
2018-11-01T00:44:39.287Z,928.65
2018-11-01T00:44:52.310Z,928.68
2018-11-01T00:45:05.237Z,928.64
2018-11-01T00:45:18.235Z,928.64
2018-11-01T00:45:31.240Z,928.64
2018-11-01T00:45:44.221Z,928.64
2018-11-01T00:45:57.136Z,928.64
2018-11-01T00:46:10.083Z,928.64
2018-11-01T00:46:23.008Z,928.61
2018-11-01T00:46:35.914Z,928.56
2018-11-01T00:46:48.897Z,928.59
2018-11-01T00:47:01.985Z,928.62
2018-11-01T00:47:14.122Z,928.59
2018-11-01T00:47:27.060Z,928.61
2018-11-01T00:47:40.048Z,928.57
2018-11-01T00:47:52.561Z,928.62
2018-11-01T00:48:05.132Z,928.6
2018-11-01T00:48:18.091Z,928.63
2018-11-01T00:48:30.649Z,928.61
2018-11-01T00:48:42.715Z,928.61
2018-11-01T00:48:55.238Z,928.63
2018-11-01T00:49:08.167Z,928.62
2018-11-01T00:49:21.154Z,928.62
2018-11-01T00:49:34.121Z,928.61
2018-11-01T00:49:47.097Z,928.65
2018-11-01T00:50:00.105Z,928.63
2018-11-01T00:50:10.791Z,928.65
2018-11-01T00:50:23.726Z,928.61
2018-11-01T00:50:36.752Z,928.64
2018-11-01T00:50:49.761Z,928.64
2018-11-01T00:51:01.333Z,928.64
2018-11-01T00:51:14.336Z,928.61
2018-11-01T00:51:27.370Z,928.63
2018-11-01T00:51:40.350Z,928.58
2018-11-01T00:51:52.830Z,928.59
2018-11-01T00:52:05.340Z,928.56
2018-11-01T00:52:18.322Z,928.57
2018-11-01T00:52:31.308Z,928.56
2018-11-01T00:52:44.290Z,928.56
2018-11-01T00:52:56.348Z,928.56
2018-11-01T00:53:08.880Z,928.56
2018-11-01T00:53:21.034Z,928.51
2018-11-01T00:53:34.029Z,928.5
2018-11-01T00:53:46.575Z,928.51
2018-11-01T00:53:59.554Z,928.51
2018-11-01T00:54:12.558Z,928.51
2018-11-01T00:54:25.127Z,928.47
2018-11-01T00:54:38.193Z,928.48
2018-11-01T00:54:50.798Z,928.44
2018-11-01T00:55:03.309Z,928.48
2018-11-01T00:55:15.890Z,928.47
2018-11-01T00:55:28.884Z,928.45
2018-11-01T00:55:41.468Z,928.44
2018-11-01T00:55:54.409Z,928.44
2018-11-01T00:56:06.998Z,928.44
2018-11-01T00:56:19.985Z,928.45
2018-11-01T00:56:32.007Z,928.44
2018-11-01T00:56:44.534Z,928.43
2018-11-01T00:56:57.088Z,928.44
2018-11-01T00:57:10.118Z,928.39
2018-11-01T00:57:22.635Z,928.4
2018-11-01T00:57:35.163Z,928.39
2018-11-01T00:57:47.702Z,928.38
2018-11-01T00:58:00.729Z,928.36
2018-11-01T00:58:13.259Z,928.4
2018-11-01T00:58:26.191Z,928.37
2018-11-01T00:58:39.155Z,928.35
2018-11-01T00:58:52.140Z,928.39
2018-11-01T00:59:05.288Z,928.42
2018-11-01T00:59:17.817Z,928.41
2018-11-01T00:59:30.793Z,928.42
2018-11-01T00:59:43.808Z,928.42
2018-11-01T00:59:55.869Z,928.4
2018-11-01T01:00:08.418Z,928.4
2018-11-01T01:00:20.962Z,928.42
2018-11-01T01:00:33.427Z,928.41
2018-11-01T01:00:45.944Z,928.44
2018-11-01T01:00:58.549Z,928.45
2018-11-01T01:01:11.550Z,928.44
2018-11-01T01:01:23.197Z,928.43
2018-11-01T01:01:36.165Z,928.43
2018-11-01T01:01:49.224Z,928.44
2018-11-01T01:02:01.689Z,928.41
2018-11-01T01:02:14.735Z,928.44
2018-11-01T01:02:27.680Z,928.44
2018-11-01T01:02:39.302Z,928.44
2018-11-01T01:02:51.327Z,928.43
2018-11-01T01:03:04.333Z,928.42
2018-11-01T01:03:16.860Z,928.45
2018-11-01T01:03:29.324Z,928.44
2018-11-01T01:03:41.464Z,928.44
2018-11-01T01:03:54.411Z,928.44
2018-11-01T01:04:07.547Z,928.42
2018-11-01T01:04:20.585Z,928.4
2018-11-01T01:04:32.645Z,928.43
2018-11-01T01:04:45.162Z,928.41
2018-11-01T01:04:57.722Z,928.4
2018-11-01T01:05:10.676Z,928.43
2018-11-01T01:05:22.734Z,928.41
2018-11-01T01:05:34.808Z,928.38
2018-11-01T01:05:47.336Z,928.4
2018-11-01T01:06:00.358Z,928.39
2018-11-01T01:06:12.920Z,928.4
2018-11-01T01:06:25.831Z,928.4
2018-11-01T01:06:38.749Z,928.4
2018-11-01T01:06:51.236Z,928.38
2018-11-01T01:07:03.319Z,928.38
2018-11-01T01:07:15.339Z,928.36
2018-11-01T01:07:27.410Z,928.37
2018-11-01T01:07:39.455Z,928.37
2018-11-01T01:07:51.952Z,928.39
2018-11-01T01:08:03.540Z,928.37
2018-11-01T01:08:16.476Z,928.34
2018-11-01T01:08:28.035Z,928.32
2018-11-01T01:08:40.068Z,928.35
2018-11-01T01:08:52.637Z,928.34
2018-11-01T01:09:05.126Z,928.37
2018-11-01T01:09:17.189Z,928.34
2018-11-01T01:09:30.167Z,928.33
2018-11-01T01:09:43.142Z,928.32
2018-11-01T01:09:54.787Z,928.35
2018-11-01T01:10:07.326Z,928.37
2018-11-01T01:10:20.329Z,928.36
2018-11-01T01:10:32.918Z,928.36
2018-11-01T01:10:45.395Z,928.35
2018-11-01T01:10:58.340Z,928.36
2018-11-01T01:11:10.366Z,928.35
2018-11-01T01:11:22.865Z,928.37
2018-11-01T01:11:35.841Z,928.39
2018-11-01T01:11:48.344Z,928.37
2018-11-01T01:11:59.922Z,928.36
2018-11-01T01:12:11.948Z,928.38
2018-11-01T01:12:24.979Z,928.37
2018-11-01T01:12:37.049Z,928.4
2018-11-01T01:12:50.046Z,928.39
2018-11-01T01:13:02.624Z,928.37
2018-11-01T01:13:15.143Z,928.37
2018-11-01T01:13:27.726Z,928.36
2018-11-01T01:13:40.208Z,928.37
2018-11-01T01:13:52.802Z,928.41
2018-11-01T01:14:04.441Z,928.38
2018-11-01T01:14:16.913Z,928.39
2018-11-01T01:14:29.441Z,928.38
2018-11-01T01:14:41.945Z,928.42
2018-11-01T01:14:54.516Z,928.42
2018-11-01T01:15:06.518Z,928.4
2018-11-01T01:15:18.590Z,928.39
2018-11-01T01:15:31.623Z,928.39
2018-11-01T01:15:43.686Z,928.41
2018-11-01T01:15:56.667Z,928.41
2018-11-01T01:16:09.118Z,928.4
2018-11-01T01:16:20.708Z,928.44
2018-11-01T01:16:33.619Z,928.41
2018-11-01T01:16:45.665Z,928.43
2018-11-01T01:16:58.158Z,928.39
2018-11-01T01:17:10.756Z,928.42
2018-11-01T01:17:23.268Z,928.41
2018-11-01T01:17:35.250Z,928.45
2018-11-01T01:17:48.205Z,928.41
2018-11-01T01:18:00.731Z,928.43
2018-11-01T01:18:13.221Z,928.44
2018-11-01T01:18:26.220Z,928.47
2018-11-01T01:18:38.819Z,928.43
2018-11-01T01:18:51.519Z,928.45
2018-11-01T01:19:04.006Z,928.41
2018-11-01T01:19:16.277Z,928.43
2018-11-01T01:19:29.264Z,928.45
2018-11-01T01:19:42.296Z,928.44
2018-11-01T01:19:55.227Z,928.46
2018-11-01T01:20:07.266Z,928.44
2018-11-01T01:20:20.251Z,928.44
2018-11-01T01:20:32.350Z,928.45
2018-11-01T01:20:45.389Z,928.45
2018-11-01T01:20:58.405Z,928.46
2018-11-01T01:21:10.946Z,928.45
2018-11-01T01:21:23.485Z,928.46
2018-11-01T01:21:36.017Z,928.45
2018-11-01T01:21:49.029Z,928.46
2018-11-01T01:22:01.566Z,928.45
2018-11-01T01:22:14.098Z,928.43
2018-11-01T01:22:27.092Z,928.45
2018-11-01T01:22:40.040Z,928.42
2018-11-01T01:22:53.031Z,928.44
2018-11-01T01:23:05.097Z,928.46
2018-11-01T01:23:17.622Z,928.44
2018-11-01T01:23:30.570Z,928.41
2018-11-01T01:23:43.076Z,928.42
2018-11-01T01:23:56.101Z,928.4
2018-11-01T01:24:09.145Z,928.36
2018-11-01T01:24:22.143Z,928.37
2018-11-01T01:24:34.715Z,928.4
2018-11-01T01:24:47.705Z,928.37
2018-11-01T01:25:00.273Z,928.4
2018-11-01T01:25:13.186Z,928.36
2018-11-01T01:25:26.226Z,928.36
2018-11-01T01:25:39.155Z,928.34
2018-11-01T01:25:52.124Z,928.33
2018-11-01T01:26:05.113Z,928.35
2018-11-01T01:26:18.092Z,928.34
2018-11-01T01:26:30.165Z,928.32
2018-11-01T01:26:43.162Z,928.33
2018-11-01T01:26:56.173Z,928.34
2018-11-01T01:27:08.734Z,928.34
2018-11-01T01:27:21.284Z,928.31
2018-11-01T01:27:33.782Z,928.33
2018-11-01T01:27:46.743Z,928.3
2018-11-01T01:27:59.738Z,928.32
2018-11-01T01:28:12.295Z,928.31
2018-11-01T01:28:24.782Z,928.31
2018-11-01T01:28:37.312Z,928.31
2018-11-01T01:28:50.287Z,928.29
2018-11-01T01:29:02.852Z,928.29
2018-11-01T01:29:16.202Z,928.29
2018-11-01T01:29:28.722Z,928.28
2018-11-01T01:29:41.671Z,928.29
2018-11-01T01:29:54.665Z,928.3
2018-11-01T01:30:07.595Z,928.28
2018-11-01T01:30:20.078Z,928.27
2018-11-01T01:30:33.043Z,928.29
2018-11-01T01:30:45.567Z,928.29
2018-11-01T01:30:58.550Z,928.27
2018-11-01T01:31:11.045Z,928.26
2018-11-01T01:31:23.632Z,928.26
2018-11-01T01:31:35.658Z,928.28
2018-11-01T01:31:48.184Z,928.28
2018-11-01T01:32:01.188Z,928.23
2018-11-01T01:32:13.699Z,928.24
2018-11-01T01:32:26.775Z,928.27
2018-11-01T01:32:39.240Z,928.24
2018-11-01T01:32:51.772Z,928.21
2018-11-01T01:33:04.310Z,928.24
2018-11-01T01:33:17.278Z,928.23
2018-11-01T01:33:30.280Z,928.2
2018-11-01T01:33:43.310Z,928.24
2018-11-01T01:33:56.281Z,928.18
2018-11-01T01:34:09.231Z,928.21
2018-11-01T01:34:22.032Z,928.18
2018-11-01T01:34:34.841Z,928.22
2018-11-01T01:34:47.912Z,928.19
2018-11-01T01:35:00.987Z,928.18
2018-11-01T01:35:13.062Z,928.13
2018-11-01T01:35:26.063Z,928.13
2018-11-01T01:35:38.608Z,928.13
2018-11-01T01:35:51.618Z,928.13
2018-11-01T01:36:04.153Z,928.1
2018-11-01T01:36:17.194Z,928.14
2018-11-01T01:36:29.683Z,928.12
2018-11-01T01:36:42.642Z,928.09
2018-11-01T01:36:55.131Z,928.1
2018-11-01T01:37:07.596Z,928.06
2018-11-01T01:37:20.107Z,928.06
2018-11-01T01:37:33.082Z,928.05
2018-11-01T01:37:46.052Z,928.04
2018-11-01T01:37:58.617Z,927.99
2018-11-01T01:38:11.133Z,928.01
2018-11-01T01:38:24.116Z,927.97
2018-11-01T01:38:37.115Z,927.99
2018-11-01T01:38:49.647Z,927.98
2018-11-01T01:39:02.172Z,927.95
2018-11-01T01:39:14.258Z,927.95
2018-11-01T01:39:26.911Z,927.96
2018-11-01T01:39:39.433Z,927.92
2018-11-01T01:39:51.480Z,927.92
2018-11-01T01:40:04.031Z,927.93
2018-11-01T01:40:16.996Z,927.9
2018-11-01T01:40:28.607Z,927.91
2018-11-01T01:40:41.219Z,927.89
2018-11-01T01:40:54.219Z,927.89
2018-11-01T01:41:06.257Z,927.89
2018-11-01T01:41:18.761Z,927.84
2018-11-01T01:41:31.322Z,927.82
2018-11-01T01:41:44.270Z,927.83
2018-11-01T01:41:57.221Z,927.82
2018-11-01T01:42:09.753Z,927.83
2018-11-01T01:42:21.829Z,927.83
2018-11-01T01:42:34.370Z,927.82
2018-11-01T01:42:47.320Z,927.78
2018-11-01T01:43:00.309Z,927.8
2018-11-01T01:43:13.348Z,927.76
2018-11-01T01:43:26.399Z,927.79
2018-11-01T01:43:39.368Z,927.76
2018-11-01T01:43:51.885Z,927.8
2018-11-01T01:44:03.498Z,927.77
2018-11-01T01:44:15.993Z,927.79
2018-11-01T01:44:29.449Z,927.77
2018-11-01T01:44:42.422Z,927.74
2018-11-01T01:44:54.918Z,927.75
2018-11-01T01:45:07.382Z,927.75
2018-11-01T01:45:20.470Z,927.72
2018-11-01T01:45:33.571Z,927.74
2018-11-01T01:45:46.592Z,927.71
2018-11-01T01:45:59.625Z,927.72
2018-11-01T01:46:11.672Z,927.7
2018-11-01T01:46:24.627Z,927.71
2018-11-01T01:46:37.611Z,927.7
2018-11-01T01:46:50.634Z,927.68
2018-11-01T01:47:02.666Z,927.69
2018-11-01T01:47:14.252Z,927.66
2018-11-01T01:47:26.346Z,927.65
2018-11-01T01:47:39.347Z,927.62
2018-11-01T01:47:51.879Z,927.66
2018-11-01T01:48:04.335Z,927.65
2018-11-01T01:48:17.303Z,927.64
2018-11-01T01:48:29.820Z,927.6
2018-11-01T01:48:42.324Z,927.64
2018-11-01T01:48:55.356Z,927.6
2018-11-01T01:49:08.397Z,927.56
2018-11-01T01:49:20.918Z,927.61
2018-11-01T01:49:33.970Z,927.6
2018-11-01T01:49:46.945Z,927.59
2018-11-01T01:49:59.424Z,927.57
2018-11-01T01:50:11.930Z,927.54
2018-11-01T01:50:25.315Z,927.56
2018-11-01T01:50:38.581Z,927.55
2018-11-01T01:50:52.369Z,927.6
2018-11-01T01:51:05.406Z,927.6
2018-11-01T01:51:18.383Z,927.54
2018-11-01T01:51:31.284Z,927.56
2018-11-01T01:51:43.847Z,927.59
2018-11-01T01:51:56.883Z,927.57
2018-11-01T01:52:09.422Z,927.59
2018-11-01T01:52:21.954Z,927.56
2018-11-01T01:52:34.449Z,927.57
2018-11-01T01:52:47.435Z,927.57
2018-11-01T01:53:00.355Z,927.61
2018-11-01T01:53:12.830Z,927.58
2018-11-01T01:53:24.834Z,927.59
2018-11-01T01:53:37.800Z,927.59
2018-11-01T01:53:49.890Z,927.58
2018-11-01T01:54:02.855Z,927.59
2018-11-01T01:54:15.313Z,927.6
2018-11-01T01:54:27.796Z,927.63
2018-11-01T01:54:40.298Z,927.62
2018-11-01T01:54:52.402Z,927.61
2018-11-01T01:55:04.968Z,927.57
2018-11-01T01:55:18.040Z,927.61
2018-11-01T01:55:31.084Z,927.58
2018-11-01T01:55:43.583Z,927.61
2018-11-01T01:55:56.092Z,927.63
2018-11-01T01:56:08.644Z,927.63
2018-11-01T01:56:21.568Z,927.62
2018-11-01T01:56:34.531Z,927.6
2018-11-01T01:56:47.055Z,927.61
2018-11-01T01:56:59.555Z,927.58
2018-11-01T01:57:12.102Z,927.59
2018-11-01T01:57:25.061Z,927.55
2018-11-01T01:57:38.027Z,927.56
2018-11-01T01:57:50.953Z,927.53
2018-11-01T01:58:03.902Z,927.54
2018-11-01T01:58:16.921Z,927.54
2018-11-01T01:58:29.430Z,927.55
2018-11-01T01:58:42.413Z,927.52
2018-11-01T01:58:54.928Z,927.52
2018-11-01T01:59:07.945Z,927.51
2018-11-01T01:59:20.939Z,927.49
2018-11-01T01:59:34.213Z,927.49
2018-11-01T01:59:46.749Z,927.5
2018-11-01T01:59:59.729Z,927.49
2018-11-01T02:00:11.799Z,927.48
2018-11-01T02:00:24.386Z,927.49
2018-11-01T02:00:36.497Z,927.47
2018-11-01T02:00:48.995Z,927.5
2018-11-01T02:01:01.966Z,927.52
2018-11-01T02:01:14.973Z,927.5
2018-11-01T02:01:27.464Z,927.51
2018-11-01T02:01:40.464Z,927.5
2018-11-01T02:01:52.956Z,927.51
2018-11-01T02:02:05.475Z,927.53
2018-11-01T02:02:17.495Z,927.5
2018-11-01T02:02:30.088Z,927.49
2018-11-01T02:02:43.016Z,927.51
2018-11-01T02:02:56.016Z,927.48
2018-11-01T02:03:08.565Z,927.52
2018-11-01T02:03:21.036Z,927.5
2018-11-01T02:03:34.062Z,927.51
2018-11-01T02:03:46.591Z,927.49
2018-11-01T02:03:59.120Z,927.53
2018-11-01T02:04:12.118Z,927.49
2018-11-01T02:04:25.010Z,927.5
2018-11-01T02:04:37.219Z,927.47
2018-11-01T02:04:50.265Z,927.49
2018-11-01T02:05:02.768Z,927.47
2018-11-01T02:05:15.320Z,927.47
2018-11-01T02:05:28.366Z,927.51
2018-11-01T02:05:41.338Z,927.48
2018-11-01T02:05:54.331Z,927.49
2018-11-01T02:06:07.352Z,927.46
2018-11-01T02:06:20.356Z,927.5
2018-11-01T02:06:33.317Z,927.47
2018-11-01T02:06:45.374Z,927.47
2018-11-01T02:06:57.445Z,927.47
2018-11-01T02:07:09.957Z,927.46
2018-11-01T02:07:22.069Z,927.46
2018-11-01T02:07:35.061Z,927.46
2018-11-01T02:07:47.599Z,927.44
2018-11-01T02:08:00.563Z,927.45
2018-11-01T02:08:12.626Z,927.45
2018-11-01T02:08:25.156Z,927.47
2018-11-01T02:08:37.230Z,927.45
2018-11-01T02:08:49.749Z,927.43
2018-11-01T02:09:02.728Z,927.44
2018-11-01T02:09:14.787Z,927.44
2018-11-01T02:09:27.302Z,927.43
2018-11-01T02:09:40.337Z,927.42
2018-11-01T02:09:52.822Z,927.42
2018-11-01T02:10:05.773Z,927.45
2018-11-01T02:10:18.758Z,927.44
2018-11-01T02:10:31.753Z,927.46
2018-11-01T02:10:44.265Z,927.47
2018-11-01T02:10:56.724Z,927.45
2018-11-01T02:11:09.226Z,927.47
2018-11-01T02:11:21.724Z,927.46
2018-11-01T02:11:34.453Z,927.48
2018-11-01T02:11:47.649Z,927.48
2018-11-01T02:12:01.193Z,927.46
2018-11-01T02:12:13.649Z,927.51
2018-11-01T02:12:26.153Z,927.48
2018-11-01T02:12:38.674Z,927.49
2018-11-01T02:12:51.610Z,927.44
2018-11-01T02:13:04.145Z,927.52
2018-11-01T02:13:16.649Z,927.49
2018-11-01T02:13:29.580Z,927.49
2018-11-01T02:13:42.593Z,927.5
2018-11-01T02:13:55.105Z,927.51
2018-11-01T02:14:07.172Z,927.5
2018-11-01T02:14:18.672Z,927.48
2018-11-01T02:14:30.680Z,927.49
2018-11-01T02:14:44.638Z,927.5
2018-11-01T02:14:57.626Z,927.51
2018-11-01T02:15:10.585Z,927.53
2018-11-01T02:15:23.119Z,927.5
2018-11-01T02:15:35.244Z,927.52
2018-11-01T02:15:47.745Z,927.52
2018-11-01T02:16:00.771Z,927.55
2018-11-01T02:16:13.767Z,927.52
2018-11-01T02:16:26.303Z,927.54
2018-11-01T02:16:39.385Z,927.55
2018-11-01T02:16:51.490Z,927.52
2018-11-01T02:17:03.109Z,927.55
2018-11-01T02:17:15.158Z,927.54
2018-11-01T02:17:28.135Z,927.55
2018-11-01T02:17:41.118Z,927.52
2018-11-01T02:17:54.109Z,927.53
2018-11-01T02:18:06.615Z,927.53
2018-11-01T02:18:18.706Z,927.53
2018-11-01T02:18:31.801Z,927.55
2018-11-01T02:18:44.252Z,927.5
2018-11-01T02:18:57.287Z,927.53
2018-11-01T02:19:10.373Z,927.53
2018-11-01T02:19:23.333Z,927.52
2018-11-01T02:19:36.213Z,927.53
2018-11-01T02:19:48.308Z,927.53
2018-11-01T02:20:01.302Z,927.53
2018-11-01T02:20:12.900Z,927.52
2018-11-01T02:20:25.086Z,927.52
2018-11-01T02:20:38.118Z,927.54
2018-11-01T02:20:50.642Z,927.53
2018-11-01T02:21:02.620Z,927.56
2018-11-01T02:21:15.242Z,927.52
2018-11-01T02:21:27.746Z,927.52
2018-11-01T02:21:40.710Z,927.51
2018-11-01T02:21:52.738Z,927.54
2018-11-01T02:22:05.769Z,927.52
2018-11-01T02:22:17.802Z,927.53
2018-11-01T02:22:30.325Z,927.52
2018-11-01T02:22:42.835Z,927.49
2018-11-01T02:22:55.325Z,927.53
2018-11-01T02:23:07.853Z,927.52
2018-11-01T02:23:20.365Z,927.52
2018-11-01T02:23:33.349Z,927.52
2018-11-01T02:23:46.358Z,927.53
2018-11-01T02:23:59.424Z,927.55
2018-11-01T02:24:11.949Z,927.54
2018-11-01T02:24:24.498Z,927.54
2018-11-01T02:24:37.041Z,927.54
2018-11-01T02:24:49.524Z,927.53
2018-11-01T02:25:02.072Z,927.55
2018-11-01T02:25:14.627Z,927.5
2018-11-01T02:25:27.602Z,927.52
2018-11-01T02:25:40.122Z,927.5
2018-11-01T02:25:52.188Z,927.54
2018-11-01T02:26:05.140Z,927.53
2018-11-01T02:26:17.195Z,927.51
2018-11-01T02:26:30.218Z,927.5
2018-11-01T02:26:42.757Z,927.53
2018-11-01T02:26:54.838Z,927.53
2018-11-01T02:27:07.330Z,927.52
2018-11-01T02:27:20.202Z,927.51
2018-11-01T02:27:32.711Z,927.52
2018-11-01T02:27:44.806Z,927.5
2018-11-01T02:27:57.762Z,927.52
2018-11-01T02:28:10.746Z,927.48
2018-11-01T02:28:23.793Z,927.51
2018-11-01T02:28:36.325Z,927.52
2018-11-01T02:28:49.253Z,927.47
2018-11-01T02:29:02.244Z,927.48
2018-11-01T02:29:14.761Z,927.47
2018-11-01T02:29:27.318Z,927.46
2018-11-01T02:29:40.276Z,927.45
2018-11-01T02:29:52.829Z,927.48
2018-11-01T02:30:05.840Z,927.44
2018-11-01T02:30:18.375Z,927.46
2018-11-01T02:30:31.331Z,927.41
2018-11-01T02:30:43.850Z,927.42
2018-11-01T02:30:55.890Z,927.4
2018-11-01T02:31:08.893Z,927.39
2018-11-01T02:31:20.501Z,927.39
2018-11-01T02:31:33.777Z,927.39
2018-11-01T02:31:46.751Z,927.41
2018-11-01T02:31:59.258Z,927.37
2018-11-01T02:32:11.763Z,927.36
2018-11-01T02:32:24.801Z,927.31
2018-11-01T02:32:37.293Z,927.37
2018-11-01T02:32:50.315Z,927.32
2018-11-01T02:33:03.345Z,927.33
2018-11-01T02:33:16.381Z,927.3
2018-11-01T02:33:29.320Z,927.28
2018-11-01T02:33:41.887Z,927.29
2018-11-01T02:33:54.880Z,927.23
2018-11-01T02:34:07.373Z,927.23
2018-11-01T02:34:20.295Z,927.24
2018-11-01T02:34:32.886Z,927.25
2018-11-01T02:34:46.026Z,927.25
2018-11-01T02:34:58.555Z,927.21
2018-11-01T02:35:11.104Z,927.17
2018-11-01T02:35:23.656Z,927.19
2018-11-01T02:35:36.722Z,927.17
2018-11-01T02:35:49.693Z,927.18
2018-11-01T02:36:01.273Z,927.18
2018-11-01T02:36:14.301Z,927.14
2018-11-01T02:36:27.288Z,927.1
2018-11-01T02:36:40.301Z,927.1
2018-11-01T02:36:53.342Z,927.09
2018-11-01T02:37:06.274Z,927.03
2018-11-01T02:37:18.848Z,927.05
2018-11-01T02:37:30.926Z,927.01
2018-11-01T02:37:43.136Z,927.01
2018-11-01T02:37:56.683Z,927
2018-11-01T02:38:09.916Z,926.96
2018-11-01T02:38:23.762Z,926.95